sensor_id;sensor_type;location;lat;lon;timestamp;pressure;altitude;pressure_sealevel;temperature
60615;BMP280;46444;45.590;5.284;2023-04-06T03:23:29;99064.72;;;4.72
60615;BMP280;46444;45.590;5.284;2023-04-06T03:27:07;99071.03;;;4.71
60615;BMP280;46444;45.590;5.284;2023-04-06T03:30:15;99059.72;;;4.56
60615;BMP280;46444;45.590;5.284;2023-04-06T03:33:08;99066.47;;;4.59
60615;BMP280;46444;45.590;5.284;2023-04-06T04:53:42;99089.97;;;4.68
60615;BMP280;46444;45.590;5.284;2023-04-06T04:56:07;99107.41;;;4.63
60615;BMP280;46444;45.590;5.284;2023-04-06T04:58:33;99094.84;;;4.71
60615;BMP280;46444;45.590;5.284;2023-04-06T05:00:59;99101.78;;;4.72
60615;BMP280;46444;45.590;5.284;2023-04-06T05:03:25;99105.69;;;4.76
60615;BMP280;46444;45.590;5.284;2023-04-06T05:05:51;99100.69;;;4.88
60615;BMP280;46444;45.590;5.284;2023-04-06T05:08:17;99099.09;;;4.93
60615;BMP280;46444;45.590;5.284;2023-04-06T05:10:43;99095.72;;;4.78
60615;BMP280;46444;45.590;5.284;2023-04-06T05:13:10;99100.47;;;4.62
60615;BMP280;46444;45.590;5.284;2023-04-06T05:15:36;99094.09;;;4.77
60615;BMP280;46444;45.590;5.284;2023-04-06T05:18:04;99095.09;;;4.76
60615;BMP280;46444;45.590;5.284;2023-04-06T05:20:30;99093.72;;;4.80
60615;BMP280;46444;45.590;5.284;2023-04-06T05:22:56;99094.91;;;4.78
60615;BMP280;46444;45.590;5.284;2023-04-06T05:25:22;99097.66;;;4.63
60615;BMP280;46444;45.590;5.284;2023-04-06T05:27:47;99102.56;;;4.66
60615;BMP280;46444;45.590;5.284;2023-04-06T05:30:13;99105.78;;;4.62
60615;BMP280;46444;45.590;5.284;2023-04-06T05:32:39;99109.88;;;4.64
60615;BMP280;46444;45.590;5.284;2023-04-06T05:35:05;99111.56;;;4.72
60615;BMP280;46444;45.590;5.284;2023-04-06T05:37:30;99113.28;;;4.86
60615;BMP280;46444;45.590;5.284;2023-04-06T05:39:56;99114.81;;;4.95
60615;BMP280;46444;45.590;5.284;2023-04-06T05:42:22;99120.28;;;4.93
60615;BMP280;46444;45.590;5.284;2023-04-06T05:44:48;99125.41;;;4.95
60615;BMP280;46444;45.590;5.284;2023-04-06T05:47:14;99121.31;;;4.92
60615;BMP280;46444;45.590;5.284;2023-04-06T05:49:41;99132.66;;;5.14
60615;BMP280;46444;45.590;5.284;2023-04-06T05:52:08;99127.78;;;5.17
60615;BMP280;46444;45.590;5.284;2023-04-06T05:54:34;99126.16;;;5.16
60615;BMP280;46444;45.590;5.284;2023-04-06T05:57:02;99116.78;;;5.14
60615;BMP280;46444;45.590;5.284;2023-04-06T05:59:27;99130.91;;;5.27
60615;BMP280;46444;45.590;5.284;2023-04-06T06:01:53;99128.53;;;5.39
60615;BMP280;46444;45.590;5.284;2023-04-06T06:04:18;99130.91;;;5.27
60615;BMP280;46444;45.590;5.284;2023-04-06T06:06:44;99122.03;;;5.41
60615;BMP280;46444;45.590;5.284;2023-04-06T06:09:10;99118.19;;;5.50
60615;BMP280;46444;45.590;5.284;2023-04-06T06:14:11;99118.63;;;5.54
60615;BMP280;46444;45.590;5.284;2023-04-06T06:16:36;99111.53;;;5.67
60615;BMP280;46444;45.590;5.284;2023-04-06T06:19:02;99113.16;;;5.68
60615;BMP280;46444;45.590;5.284;2023-04-06T06:21:30;99123.88;;;5.81
60615;BMP280;46444;45.590;5.284;2023-04-06T06:23:56;99123.28;;;5.86
60615;BMP280;46444;45.590;5.284;2023-04-06T06:26:22;99123.50;;;5.91
60615;BMP280;46444;45.590;5.284;2023-04-06T06:28:47;99124.13;;;5.93
60615;BMP280;46444;45.590;5.284;2023-04-06T06:31:14;99134.75;;;5.99
60615;BMP280;46444;45.590;5.284;2023-04-06T06:33:39;99137.22;;;6.07
60615;BMP280;46444;45.590;5.284;2023-04-06T06:36:05;99123.81;;;6.22
60615;BMP280;46444;45.590;5.284;2023-04-06T06:38:30;99126.25;;;6.23
60615;BMP280;46444;45.590;5.284;2023-04-06T06:40:56;99128.94;;;6.36
60615;BMP280;46444;45.590;5.284;2023-04-06T06:43:22;99128.13;;;6.42
60615;BMP280;46444;45.590;5.284;2023-04-06T06:45:48;99122.84;;;6.49
60615;BMP280;46444;45.590;5.284;2023-04-06T06:48:13;99123.44;;;6.57
60615;BMP280;46444;45.590;5.284;2023-04-06T06:50:39;99116.91;;;6.53
60615;BMP280;46444;45.590;5.284;2023-04-06T06:53:05;99124.28;;;6.58
60615;BMP280;46444;45.590;5.284;2023-04-06T06:55:31;99131.63;;;6.69
60615;BMP280;46444;45.590;5.284;2023-04-06T06:57:56;99128.78;;;6.70
60615;BMP280;46444;45.590;5.284;2023-04-06T07:00:22;99122.25;;;6.86
60615;BMP280;46444;45.590;5.284;2023-04-06T07:02:48;99125.09;;;6.97
60615;BMP280;46444;45.590;5.284;2023-04-06T07:05:14;99123.47;;;6.96
60615;BMP280;46444;45.590;5.284;2023-04-06T07:07:40;99113.44;;;7.05
60615;BMP280;46444;45.590;5.284;2023-04-06T07:10:07;99104.63;;;7.04
60615;BMP280;46444;45.590;5.284;2023-04-06T07:12:33;99111.16;;;7.21
60615;BMP280;46444;45.590;5.284;2023-04-06T07:14:58;99115.03;;;7.25
60615;BMP280;46444;45.590;5.284;2023-04-06T07:17:24;99117.69;;;7.32
60615;BMP280;46444;45.590;5.284;2023-04-06T07:19:50;99112.78;;;7.35
60615;BMP280;46444;45.590;5.284;2023-04-06T07:22:16;99114.97;;;7.51
60615;BMP280;46444;45.590;5.284;2023-04-06T07:24:41;99109.06;;;7.49
60615;BMP280;46444;45.590;5.284;2023-04-06T07:27:07;99119.47;;;7.57
60615;BMP280;46444;45.590;5.284;2023-04-06T07:29:33;99113.94;;;7.65
60615;BMP280;46444;45.590;5.284;2023-04-06T07:31:58;99116.34;;;7.73
60615;BMP280;46444;45.590;5.284;2023-04-06T07:34:24;99125.53;;;7.77
60615;BMP280;46444;45.590;5.284;2023-04-06T07:36:49;99126.16;;;7.73
60615;BMP280;46444;45.590;5.284;2023-04-06T07:39:15;99134.19;;;7.60
60615;BMP280;46444;45.590;5.284;2023-04-06T07:41:41;99142.53;;;7.70
60615;BMP280;46444;45.590;5.284;2023-04-06T07:44:06;99141.13;;;7.67
60615;BMP280;46444;45.590;5.284;2023-04-06T07:46:32;99140.28;;;7.73
60615;BMP280;46444;45.590;5.284;2023-04-06T07:48:59;99144.56;;;7.81
60615;BMP280;46444;45.590;5.284;2023-04-06T07:51:25;99151.13;;;7.78
60615;BMP280;46444;45.590;5.284;2023-04-06T07:53:51;99140.28;;;7.67
60615;BMP280;46444;45.590;5.284;2023-04-06T07:56:17;99143.13;;;7.78
60615;BMP280;46444;45.590;5.284;2023-04-06T07:58:43;99146.56;;;7.92
60615;BMP280;46444;45.590;5.284;2023-04-06T08:01:09;99151.03;;;7.98
60615;BMP280;46444;45.590;5.284;2023-04-06T08:03:35;99148.19;;;7.93
60615;BMP280;46444;45.590;5.284;2023-04-06T08:06:02;99160.28;;;7.82
60615;BMP280;46444;45.590;5.284;2023-04-06T08:08:31;99156.22;;;7.80
60615;BMP280;46444;45.590;5.284;2023-04-06T08:10:57;99165.34;;;7.97
60615;BMP280;46444;45.590;5.284;2023-04-06T08:13:22;99163.78;;;7.89
60615;BMP280;46444;45.590;5.284;2023-04-06T08:15:48;99167.41;;;8.01
60615;BMP280;46444;45.590;5.284;2023-04-06T08:18:14;99160.22;;;8.08
60615;BMP280;46444;45.590;5.284;2023-04-06T08:20:40;99164.03;;;8.18
60615;BMP280;46444;45.590;5.284;2023-04-06T08:23:05;99163.78;;;8.33
60615;BMP280;46444;45.590;5.284;2023-04-06T08:25:35;99163.16;;;8.38
60615;BMP280;46444;45.590;5.284;2023-04-06T08:28:01;99167.41;;;8.45
60615;BMP280;46444;45.590;5.284;2023-04-06T08:30:27;99161.03;;;8.52
60615;BMP280;46444;45.590;5.284;2023-04-06T08:32:53;99161.22;;;8.57
60615;BMP280;46444;45.590;5.284;2023-04-06T08:35:18;99165.03;;;8.61
60615;BMP280;46444;45.590;5.284;2023-04-06T08:37:44;99167.31;;;8.64
60615;BMP280;46444;45.590;5.284;2023-04-06T08:40:11;99169.31;;;8.69
60615;BMP280;46444;45.590;5.284;2023-04-06T08:42:40;99166.22;;;8.72
60615;BMP280;46444;45.590;5.284;2023-04-06T08:45:08;99167.13;;;8.59
60615;BMP280;46444;45.590;5.284;2023-04-06T08:47:34;99162.03;;;8.82
60615;BMP280;46444;45.590;5.284;2023-04-06T08:50:04;99167.00;;;8.79
60615;BMP280;46444;45.590;5.284;2023-04-06T08:52:31;99175.47;;;8.94
60615;BMP280;46444;45.590;5.284;2023-04-06T08:54:57;99171.84;;;8.88
60615;BMP280;46444;45.590;5.284;2023-04-06T08:57:23;99172.56;;;9.02
60615;BMP280;46444;45.590;5.284;2023-04-06T08:59:50;99168.03;;;9.02
60615;BMP280;46444;45.590;5.284;2023-04-06T09:02:18;99165.50;;;9.14
60615;BMP280;46444;45.590;5.284;2023-04-06T09:04:46;99168.63;;;9.29
60615;BMP280;46444;45.590;5.284;2023-04-06T09:07:14;99163.25;;;9.35
60615;BMP280;46444;45.590;5.284;2023-04-06T09:09:39;99154.00;;;9.38
60615;BMP280;46444;45.590;5.284;2023-04-06T09:12:25;99159.91;;;9.40
60615;BMP280;46444;45.590;5.284;2023-04-06T09:14:52;99157.31;;;9.51
60615;BMP280;46444;45.590;5.284;2023-04-06T09:17:25;99166.53;;;9.55
60615;BMP280;46444;45.590;5.284;2023-04-06T09:22:38;99151.41;;;9.67
60615;BMP280;46444;45.590;5.284;2023-04-06T09:25:04;99155.34;;;9.65
60615;BMP280;46444;45.590;5.284;2023-04-06T09:27:31;99161.28;;;9.67
60615;BMP280;46444;45.590;5.284;2023-04-06T09:30:08;99154.19;;;9.79
60615;BMP280;46444;45.590;5.284;2023-04-06T09:32:50;99152.25;;;9.86
60615;BMP280;46444;45.590;5.284;2023-04-06T09:35:16;99157.72;;;9.91
60615;BMP280;46444;45.590;5.284;2023-04-06T09:37:43;99157.63;;;9.97
60615;BMP280;46444;45.590;5.284;2023-04-06T09:40:09;99153.88;;;10.05
60615;BMP280;46444;45.590;5.284;2023-04-06T09:42:35;99156.09;;;10.08
60615;BMP280;46444;45.590;5.284;2023-04-06T09:45:02;99155.66;;;10.11
60615;BMP280;46444;45.590;5.284;2023-04-06T09:47:28;99152.66;;;10.19
60615;BMP280;46444;45.590;5.284;2023-04-06T09:49:59;99158.72;;;10.26
60615;BMP280;46444;45.590;5.284;2023-04-06T09:52:27;99152.38;;;10.27
60615;BMP280;46444;45.590;5.284;2023-04-06T09:55:00;99144.13;;;10.28
60615;BMP280;46444;45.590;5.284;2023-04-06T10:00:09;99142.91;;;10.42
60615;BMP280;46444;45.590;5.284;2023-04-06T10:05:50;99141.09;;;10.54
60615;BMP280;46444;45.590;5.284;2023-04-06T10:08:18;99129.50;;;10.60
60615;BMP280;46444;45.590;5.284;2023-04-06T10:10:44;99135.56;;;10.67
60615;BMP280;46444;45.590;5.284;2023-04-06T10:13:11;99133.94;;;10.78
60615;BMP280;46444;45.590;5.284;2023-04-06T10:15:38;99127.09;;;10.82
60615;BMP280;46444;45.590;5.284;2023-04-06T10:18:03;99135.00;;;10.88
60615;BMP280;46444;45.590;5.284;2023-04-06T10:23:19;99130.47;;;11.00
60615;BMP280;46444;45.590;5.284;2023-04-06T10:25:56;99129.13;;;11.09
60615;BMP280;46444;45.590;5.284;2023-04-06T10:28:23;99123.31;;;11.24
60615;BMP280;46444;45.590;5.284;2023-04-06T10:30:56;99128.75;;;11.40
60615;BMP280;46444;45.590;5.284;2023-04-06T10:33:22;99125.50;;;11.50
60615;BMP280;46444;45.590;5.284;2023-04-06T10:35:47;99118.31;;;11.62
60615;BMP280;46444;45.590;5.284;2023-04-06T10:38:13;99122.38;;;11.76
60615;BMP280;46444;45.590;5.284;2023-04-06T10:40:40;99126.84;;;11.87
60615;BMP280;46444;45.590;5.284;2023-04-06T10:43:18;99126.03;;;11.98
60615;BMP280;46444;45.590;5.284;2023-04-06T10:45:43;99129.03;;;12.01
60615;BMP280;46444;45.590;5.284;2023-04-06T10:48:15;99131.09;;;12.11
60615;BMP280;46444;45.590;5.284;2023-04-06T10:50:46;99124.31;;;12.20
60615;BMP280;46444;45.590;5.284;2023-04-06T10:53:11;99131.75;;;12.29
60615;BMP280;46444;45.590;5.284;2023-04-06T10:55:39;99132.50;;;12.41
60615;BMP280;46444;45.590;5.284;2023-04-06T10:58:08;99126.53;;;12.51
60615;BMP280;46444;45.590;5.284;2023-04-06T11:00:34;99122.25;;;12.66
60615;BMP280;46444;45.590;5.284;2023-04-06T11:03:00;99125.44;;;12.80
60615;BMP280;46444;45.590;5.284;2023-04-06T11:05:28;99121.31;;;12.89
60615;BMP280;46444;45.590;5.284;2023-04-06T11:07:53;99128.97;;;12.97
60615;BMP280;46444;45.590;5.284;2023-04-06T11:10:22;99120.09;;;12.96
60615;BMP280;46444;45.590;5.284;2023-04-06T11:12:53;99129.53;;;12.99
60615;BMP280;46444;45.590;5.284;2023-04-06T11:15:18;99125.09;;;13.04
60615;BMP280;46444;45.590;5.284;2023-04-06T11:17:44;99125.47;;;12.96
60615;BMP280;46444;45.590;5.284;2023-04-06T11:20:11;99122.06;;;13.01
60615;BMP280;46444;45.590;5.284;2023-04-06T11:22:36;99122.06;;;13.01
60615;BMP280;46444;45.590;5.284;2023-04-06T11:25:12;99123.00;;;12.95
60615;BMP280;46444;45.590;5.284;2023-04-06T11:27:38;99117.34;;;13.08
60615;BMP280;46444;45.590;5.284;2023-04-06T11:30:04;99121.16;;;13.12
60615;BMP280;46444;45.590;5.284;2023-04-06T11:32:39;99113.78;;;13.19
60615;BMP280;46444;45.590;5.284;2023-04-06T11:35:06;99119.28;;;13.29
60615;BMP280;46444;45.590;5.284;2023-04-06T11:37:32;99104.31;;;13.33
60615;BMP280;46444;45.590;5.284;2023-04-06T11:39:58;99112.69;;;13.36
60615;BMP280;46444;45.590;5.284;2023-04-06T11:42:27;99110.88;;;13.42
60615;BMP280;46444;45.590;5.284;2023-04-06T11:45:02;99106.97;;;13.49
60615;BMP280;46444;45.590;5.284;2023-04-06T11:47:30;99103.78;;;13.52
60615;BMP280;46444;45.590;5.284;2023-04-06T11:49:56;99096.13;;;13.61
60615;BMP280;46444;45.590;5.284;2023-04-06T11:52:30;99100.00;;;13.70
60615;BMP280;46444;45.590;5.284;2023-04-06T11:54:55;99102.75;;;13.75
60615;BMP280;46444;45.590;5.284;2023-04-06T11:57:22;99103.06;;;13.78
60615;BMP280;46444;45.590;5.284;2023-04-06T11:59:50;99096.75;;;13.68
60615;BMP280;46444;45.590;5.284;2023-04-06T12:02:16;99094.81;;;13.63
60615;BMP280;46444;45.590;5.284;2023-04-06T12:04:42;99100.97;;;13.64
60615;BMP280;46444;45.590;5.284;2023-04-06T12:07:08;99097.19;;;13.81
60615;BMP280;46444;45.590;5.284;2023-04-06T12:09:33;99094.38;;;13.93
60615;BMP280;46444;45.590;5.284;2023-04-06T12:11:59;99095.59;;;14.07
60615;BMP280;46444;45.590;5.284;2023-04-06T12:14:25;99083.84;;;14.13
60615;BMP280;46444;45.590;5.284;2023-04-06T12:16:51;99085.81;;;14.17
60615;BMP280;46444;45.590;5.284;2023-04-06T12:19:16;99085.50;;;14.14
60615;BMP280;46444;45.590;5.284;2023-04-06T12:21:41;99081.22;;;14.18
60615;BMP280;46444;45.590;5.284;2023-04-06T12:24:07;99074.06;;;14.23
60615;BMP280;46444;45.590;5.284;2023-04-06T12:26:33;99066.75;;;14.19
60615;BMP280;46444;45.590;5.284;2023-04-06T12:28:58;99068.47;;;14.30
60615;BMP280;46444;45.590;5.284;2023-04-06T12:31:33;99070.22;;;14.41
60615;BMP280;46444;45.590;5.284;2023-04-06T12:34:00;99051.56;;;14.29
60615;BMP280;46444;45.590;5.284;2023-04-06T12:36:27;99044.88;;;14.32
60615;BMP280;46444;45.590;5.284;2023-04-06T12:38:52;99040.38;;;14.42
60615;BMP280;46444;45.590;5.284;2023-04-06T12:41:18;99040.03;;;14.34
60615;BMP280;46444;45.590;5.284;2023-04-06T12:43:44;99034.75;;;14.44
60615;BMP280;46444;45.590;5.284;2023-04-06T12:46:10;99035.41;;;14.56
60615;BMP280;46444;45.590;5.284;2023-04-06T12:48:35;99033.81;;;14.60
60615;BMP280;46444;45.590;5.284;2023-04-06T12:51:03;99032.06;;;14.44
60615;BMP280;46444;45.590;5.284;2023-04-06T12:53:29;99032.63;;;14.46
60615;BMP280;46444;45.590;5.284;2023-04-06T12:55:55;99038.34;;;14.54
60615;BMP280;46444;45.590;5.284;2023-04-06T12:58:22;99037.63;;;14.64
60615;BMP280;46444;45.590;5.284;2023-04-06T13:00:48;99036.00;;;14.63
60615;BMP280;46444;45.590;5.284;2023-04-06T13:03:14;99042.94;;;14.59
60615;BMP280;46444;45.590;5.284;2023-04-06T13:05:49;99047.06;;;14.66
60615;BMP280;46444;45.590;5.284;2023-04-06T13:08:15;99037.03;;;14.57
60615;BMP280;46444;45.590;5.284;2023-04-06T13:13:09;99042.84;;;14.80
60615;BMP280;46444;45.590;5.284;2023-04-06T13:15:35;99029.19;;;14.87
60615;BMP280;46444;45.590;5.284;2023-04-06T13:18:02;99021.97;;;14.92
60615;BMP280;46444;45.590;5.284;2023-04-06T13:20:27;99015.75;;;14.87
60615;BMP280;46444;45.590;5.284;2023-04-06T13:22:52;99019.50;;;14.86
60615;BMP280;46444;45.590;5.284;2023-04-06T13:25:18;99018.72;;;14.90
60615;BMP280;46444;45.590;5.284;2023-04-06T13:27:43;99016.84;;;14.91
60615;BMP280;46444;45.590;5.284;2023-04-06T13:30:11;99015.78;;;14.92
60615;BMP280;46444;45.590;5.284;2023-04-06T13:32:37;99003.13;;;14.92
60615;BMP280;46444;45.590;5.284;2023-04-06T13:35:02;99010.41;;;14.92
60615;BMP280;46444;45.590;5.284;2023-04-06T13:37:28;99012.56;;;14.95
60615;BMP280;46444;45.590;5.284;2023-04-06T13:39:54;99013.66;;;14.99
60615;BMP280;46444;45.590;5.284;2023-04-06T13:42:20;99009.91;;;15.00
60615;BMP280;46444;45.590;5.284;2023-04-06T13:44:45;99013.09;;;14.92
60615;BMP280;46444;45.590;5.284;2023-04-06T13:47:12;99007.13;;;14.85
60615;BMP280;46444;45.590;5.284;2023-04-06T13:49:37;99000.56;;;14.71
60615;BMP280;46444;45.590;5.284;2023-04-06T13:52:03;99007.63;;;14.82
60615;BMP280;46444;45.590;5.284;2023-04-06T13:54:28;99007.94;;;14.85
60615;BMP280;46444;45.590;5.284;2023-04-06T13:56:53;99009.03;;;14.89
60615;BMP280;46444;45.590;5.284;2023-04-06T13:59:20;99009.81;;;14.85
60615;BMP280;46444;45.590;5.284;2023-04-06T14:01:45;99005.19;;;14.80
60615;BMP280;46444;45.590;5.284;2023-04-06T14:04:10;99008.75;;;14.86
60615;BMP280;46444;45.590;5.284;2023-04-06T14:06:37;99001.75;;;14.85
60615;BMP280;46444;45.590;5.284;2023-04-06T14:09:02;99006.00;;;14.81
60615;BMP280;46444;45.590;5.284;2023-04-06T14:11:28;98994.13;;;14.77
60615;BMP280;46444;45.590;5.284;2023-04-06T14:13:53;99007.63;;;14.82
60615;BMP280;46444;45.590;5.284;2023-04-06T14:16:18;99004.16;;;14.86
60615;BMP280;46444;45.590;5.284;2023-04-06T14:18:45;99010.38;;;14.87
60615;BMP280;46444;45.590;5.284;2023-04-06T14:21:10;99005.47;;;14.84
60615;BMP280;46444;45.590;5.284;2023-04-06T14:23:36;98996.66;;;14.88
60615;BMP280;46444;45.590;5.284;2023-04-06T14:26:06;98992.06;;;14.89
60615;BMP280;46444;45.590;5.284;2023-04-06T14:28:33;98992.06;;;14.89
60615;BMP280;46444;45.590;5.284;2023-04-06T14:30:59;98987.31;;;15.01
60615;BMP280;46444;45.590;5.284;2023-04-06T14:33:26;98996.50;;;15.05
60615;BMP280;46444;45.590;5.284;2023-04-06T14:35:51;98988.13;;;15.01
60615;BMP280;46444;45.590;5.284;2023-04-06T14:38:16;98994.28;;;14.97
60615;BMP280;46444;45.590;5.284;2023-04-06T14:40:42;98996.94;;;14.92
60615;BMP280;46444;45.590;5.284;2023-04-06T14:43:07;98993.97;;;14.93
60615;BMP280;46444;45.590;5.284;2023-04-06T14:45:33;98983.78;;;14.95
60615;BMP280;46444;45.590;5.284;2023-04-06T14:48:01;98990.00;;;15.01
60615;BMP280;46444;45.590;5.284;2023-04-06T14:50:27;98992.72;;;15.06
60615;BMP280;46444;45.590;5.284;2023-04-06T14:52:52;98985.75;;;15.10
60615;BMP280;46444;45.590;5.284;2023-04-06T14:55:17;98986.00;;;15.08
60615;BMP280;46444;45.590;5.284;2023-04-06T14:57:43;98984.09;;;15.04
60615;BMP280;46444;45.590;5.284;2023-04-06T15:00:09;98980.91;;;15.12
60615;BMP280;46444;45.590;5.284;2023-04-06T15:02:34;98976.88;;;15.14
60615;BMP280;46444;45.590;5.284;2023-04-06T15:05:00;98986.88;;;15.19
60615;BMP280;46444;45.590;5.284;2023-04-06T15:07:25;98977.97;;;15.13
60615;BMP280;46444;45.590;5.284;2023-04-06T15:09:51;98980.09;;;15.11
60615;BMP280;46444;45.590;5.284;2023-04-06T15:12:16;98983.63;;;15.17
60615;BMP280;46444;45.590;5.284;2023-04-06T15:14:41;98973.97;;;15.21
60615;BMP280;46444;45.590;5.284;2023-04-06T15:17:06;98980.53;;;15.35
60615;BMP280;46444;45.590;5.284;2023-04-06T15:19:32;98974.38;;;15.44
60615;BMP280;46444;45.590;5.284;2023-04-06T15:21:57;98969.81;;;15.55
60615;BMP280;46444;45.590;5.284;2023-04-06T15:24:22;98967.72;;;15.67
60615;BMP280;46444;45.590;5.284;2023-04-06T15:26:48;98963.44;;;15.76
60615;BMP280;46444;45.590;5.284;2023-04-06T15:29:13;98969.97;;;16.05
60615;BMP280;46444;45.590;5.284;2023-04-06T15:31:38;98972.94;;;16.18
60615;BMP280;46444;45.590;5.284;2023-04-06T15:34:05;98952.50;;;16.47
60615;BMP280;46444;45.590;5.284;2023-04-06T15:36:33;98951.41;;;16.53
60615;BMP280;46444;45.590;5.284;2023-04-06T15:38:59;98953.59;;;16.56
60615;BMP280;46444;45.590;5.284;2023-04-06T15:41:26;98956.03;;;16.53
60615;BMP280;46444;45.590;5.284;2023-04-06T15:43:52;98950.09;;;16.41
60615;BMP280;46444;45.590;5.284;2023-04-06T15:46:18;98957.88;;;16.37
60615;BMP280;46444;45.590;5.284;2023-04-06T15:48:43;98944.97;;;16.39
60615;BMP280;46444;45.590;5.284;2023-04-06T15:51:09;98950.63;;;16.43
60615;BMP280;46444;45.590;5.284;2023-04-06T15:53:35;98951.97;;;16.50
60615;BMP280;46444;45.590;5.284;2023-04-06T15:56:01;98951.97;;;16.50
60615;BMP280;46444;45.590;5.284;2023-04-06T15:58:27;98959.50;;;16.58
60615;BMP280;46444;45.590;5.284;2023-04-06T16:00:52;98953.59;;;16.66
60615;BMP280;46444;45.590;5.284;2023-04-06T16:03:18;98957.06;;;16.62
60615;BMP280;46444;45.590;5.284;2023-04-06T16:05:43;98955.19;;;16.62
60615;BMP280;46444;45.590;5.284;2023-04-06T16:08:09;98944.69;;;16.46
60615;BMP280;46444;45.590;5.284;2023-04-06T16:10:35;98957.63;;;16.34
60615;BMP280;46444;45.590;5.284;2023-04-06T16:13:00;98953.84;;;16.35
60615;BMP280;46444;45.590;5.284;2023-04-06T16:15:26;98955.97;;;16.23
60615;BMP280;46444;45.590;5.284;2023-04-06T16:17:51;98964.84;;;16.18
60615;BMP280;46444;45.590;5.284;2023-04-06T16:20:16;98961.38;;;16.18
60615;BMP280;46444;45.590;5.284;2023-04-06T16:22:42;98957.03;;;16.07
60615;BMP280;46444;45.590;5.284;2023-04-06T16:25:07;98968.38;;;16.04
60615;BMP280;46444;45.590;5.284;2023-04-06T16:27:33;98967.78;;;15.97
60615;BMP280;46444;45.590;5.284;2023-04-06T16:29:58;98962.69;;;15.95
60615;BMP280;46444;45.590;5.284;2023-04-06T16:32:24;98957.81;;;15.87
60615;BMP280;46444;45.590;5.284;2023-04-06T16:34:49;98963.19;;;15.77
60615;BMP280;46444;45.590;5.284;2023-04-06T16:37:16;98962.38;;;15.77
60615;BMP280;46444;45.590;5.284;2023-04-06T16:39:41;98966.09;;;15.66
60615;BMP280;46444;45.590;5.284;2023-04-06T16:42:07;98966.06;;;15.56
60615;BMP280;46444;45.590;5.284;2023-04-06T16:44:32;98957.97;;;15.51
60615;BMP280;46444;45.590;5.284;2023-04-06T16:46:57;98961.22;;;15.53
60615;BMP280;46444;45.590;5.284;2023-04-06T16:49:24;98957.94;;;15.41
60615;BMP280;46444;45.590;5.284;2023-04-06T16:51:49;98950.38;;;15.33
60615;BMP280;46444;45.590;5.284;2023-04-06T16:54:15;98954.69;;;15.34
60615;BMP280;46444;45.590;5.284;2023-04-06T16:56:41;98946.59;;;15.34
60615;BMP280;46444;45.590;5.284;2023-04-06T16:59:07;98959.16;;;15.23
60615;BMP280;46444;45.590;5.284;2023-04-06T17:01:33;98944.38;;;15.21
60615;BMP280;46444;45.590;5.284;2023-04-06T17:03:58;98942.75;;;15.25
60615;BMP280;46444;45.590;5.284;2023-04-06T17:06:23;98947.06;;;15.21
60615;BMP280;46444;45.590;5.284;2023-04-06T17:08:49;98949.47;;;15.22
60615;BMP280;46444;45.590;5.284;2023-04-06T17:11:16;98948.38;;;15.18
60615;BMP280;46444;45.590;5.284;2023-04-06T17:13:42;98947.53;;;15.13
60615;BMP280;46444;45.590;5.284;2023-04-06T17:16:09;98959.38;;;15.12
60615;BMP280;46444;45.590;5.284;2023-04-06T17:18:35;98946.19;;;15.10
60615;BMP280;46444;45.590;5.284;2023-04-06T17:21:05;98938.34;;;15.04
60615;BMP280;46444;45.590;5.284;2023-04-06T17:23:32;98934.06;;;15.03
60615;BMP280;46444;45.590;5.284;2023-04-06T17:25:57;98940.41;;;14.87
60615;BMP280;46444;45.590;5.284;2023-04-06T17:28:24;98950.00;;;14.73
60615;BMP280;46444;45.590;5.284;2023-04-06T17:30:50;98953.22;;;14.70
60615;BMP280;46444;45.590;5.284;2023-04-06T17:33:15;98943.44;;;14.59
60615;BMP280;46444;45.590;5.284;2023-04-06T17:35:41;98952.50;;;14.48
60615;BMP280;46444;45.590;5.284;2023-04-06T17:38:07;98957.03;;;14.42
60615;BMP280;46444;45.590;5.284;2023-04-06T17:40:32;98966.72;;;14.43
60615;BMP280;46444;45.590;5.284;2023-04-06T17:42:59;98965.09;;;14.42
60615;BMP280;46444;45.590;5.284;2023-04-06T17:45:25;98961.53;;;14.37
60615;BMP280;46444;45.590;5.284;2023-04-06T17:47:50;98954.56;;;14.36
60615;BMP280;46444;45.590;5.284;2023-04-06T17:50:15;98951.28;;;14.29
60615;BMP280;46444;45.590;5.284;2023-04-06T17:52:41;98954.50;;;14.26
60615;BMP280;46444;45.590;5.284;2023-04-06T17:55:06;98960.91;;;14.25
60615;BMP280;46444;45.590;5.284;2023-04-06T17:57:32;98956.31;;;14.20
60615;BMP280;46444;45.590;5.284;2023-04-06T17:59:57;98963.44;;;14.10
60615;BMP280;46444;45.590;5.284;2023-04-06T18:02:23;98957.81;;;14.11
60615;BMP280;46444;45.590;5.284;2023-04-06T18:04:52;98965.59;;;14.08
60615;BMP280;46444;45.590;5.284;2023-04-06T18:07:17;98962.03;;;14.02
60615;BMP280;46444;45.590;5.284;2023-04-06T18:09:42;98971.91;;;13.97
60615;BMP280;46444;45.590;5.284;2023-04-06T18:12:08;98967.56;;;13.91
60615;BMP280;46444;45.590;5.284;2023-04-06T18:14:33;98968.56;;;13.85
60615;BMP280;46444;45.590;5.284;2023-04-06T18:16:58;98970.13;;;13.81
60615;BMP280;46444;45.590;5.284;2023-04-06T18:19:24;98971.69;;;13.77
60615;BMP280;46444;45.590;5.284;2023-04-06T18:21:51;98962.78;;;13.71
60615;BMP280;46444;45.590;5.284;2023-04-06T18:24:16;98966.22;;;13.67
60615;BMP280;46444;45.590;5.284;2023-04-06T18:26:41;98976.09;;;13.61
60615;BMP280;46444;45.590;5.284;2023-04-06T18:29:07;98982.22;;;13.57
60615;BMP280;46444;45.590;5.284;2023-04-06T18:31:32;98983.72;;;13.48
60615;BMP280;46444;45.590;5.284;2023-04-06T18:33:58;98991.72;;;13.43
60615;BMP280;46444;45.590;5.284;2023-04-06T18:36:23;98985.22;;;13.39
60615;BMP280;46444;45.590;5.284;2023-04-06T18:38:49;98980.59;;;13.34
60615;BMP280;46444;45.590;5.284;2023-04-06T18:41:15;98984.53;;;13.27
60615;BMP280;46444;45.590;5.284;2023-04-06T18:43:42;98991.44;;;13.23
60615;BMP280;46444;45.590;5.284;2023-04-06T18:46:11;98993.50;;;13.16
60615;BMP280;46444;45.590;5.284;2023-04-06T18:48:37;98992.34;;;13.12
60615;BMP280;46444;45.590;5.284;2023-04-06T18:51:02;98990.66;;;13.06
60615;BMP280;46444;45.590;5.284;2023-04-06T18:53:28;98995.25;;;12.89
60615;BMP280;46444;45.590;5.284;2023-04-06T18:55:55;98994.09;;;12.85
60615;BMP280;46444;45.590;5.284;2023-04-06T18:58:20;98991.34;;;12.80
60615;BMP280;46444;45.590;5.284;2023-04-06T19:00:46;98992.25;;;12.69
60615;BMP280;46444;45.590;5.284;2023-04-06T19:03:11;98996.22;;;12.66
60615;BMP280;46444;45.590;5.284;2023-04-06T19:05:39;98993.81;;;12.65
60615;BMP280;46444;45.590;5.284;2023-04-06T19:08:05;99002.56;;;12.60